sensor_id;sensor_type;location;lat;lon;timestamp;pressure;altitude;pressure_sealevel;temperature;humidity
75699;BME280;64313;51.018;13.742;2024-02-15T00:00:15;99975.97;;;8.51;80.67
75699;BME280;64313;51.018;13.742;2024-02-15T00:02:42;99980.81;;;8.47;80.70
75699;BME280;64313;51.018;13.742;2024-02-15T00:05:09;99973.03;;;8.46;80.29
75699;BME280;64313;51.018;13.742;2024-02-15T00:07:35;99968.91;;;8.43;80.33
75699;BME280;64313;51.018;13.742;2024-02-15T00:10:00;99965.63;;;8.41;80.39
75699;BME280;64313;51.018;13.742;2024-02-15T00:12:25;99970.50;;;8.37;80.20
75699;BME280;64313;51.018;13.742;2024-02-15T00:14:51;99982.13;;;8.36;80.54
75699;BME280;64313;51.018;13.742;2024-02-15T00:17:16;99972.66;;;8.34;80.95
75699;BME280;64313;51.018;13.742;2024-02-15T00:19:43;99977.16;;;8.33;80.53
75699;BME280;64313;51.018;13.742;2024-02-15T00:22:09;99973.06;;;8.31;80.41
75699;BME280;64313;51.018;13.742;2024-02-15T00:24:36;99978.53;;;8.29;80.73
75699;BME280;64313;51.018;13.742;2024-02-15T00:27:02;99976.06;;;8.28;80.79
75699;BME280;64313;51.018;13.742;2024-02-15T00:29:27;99973.41;;;8.28;80.73
75699;BME280;64313;51.018;13.742;2024-02-15T00:31:54;99976.25;;;8.26;80.70
75699;BME280;64313;51.018;13.742;2024-02-15T00:34:20;99981.56;;;8.26;80.35
75699;BME280;64313;51.018;13.742;2024-02-15T00:36:46;99969.47;;;8.24;81.03
75699;BME280;64313;51.018;13.742;2024-02-15T00:39:11;99971.16;;;8.25;81.11
75699;BME280;64313;51.018;13.742;2024-02-15T00:41:37;99979.13;;;8.25;81.23
75699;BME280;64313;51.018;13.742;2024-02-15T00:44:06;99976.47;;;8.25;80.80
75699;BME280;64313;51.018;13.742;2024-02-15T00:46:31;99977.63;;;8.22;81.04
75699;BME280;64313;51.018;13.742;2024-02-15T00:48:57;99977.63;;;8.22;81.04
75699;BME280;64313;51.018;13.742;2024-02-15T00:51:23;99970.69;;;8.21;81.31
75699;BME280;64313;51.018;13.742;2024-02-15T00:53:48;99974.16;;;8.22;81.47
75699;BME280;64313;51.018;13.742;2024-02-15T00:56:13;99969.84;;;8.21;81.05
75699;BME280;64313;51.018;13.742;2024-02-15T00:58:38;99967.41;;;8.19;81.42
75699;BME280;64313;51.018;13.742;2024-02-15T01:01:04;99967.41;;;8.19;81.21
75699;BME280;64313;51.018;13.742;2024-02-15T01:03:30;99966.56;;;8.19;81.75
75699;BME280;64313;51.018;13.742;2024-02-15T01:05:55;99969.38;;;8.17;81.50
75699;BME280;64313;51.018;13.742;2024-02-15T01:08:21;99968.41;;;8.18;81.43
75699;BME280;64313;51.018;13.742;2024-02-15T01:10:46;99972.88;;;8.18;81.57
75699;BME280;64313;51.018;13.742;2024-02-15T01:13:11;99971.22;;;8.17;81.52
75699;BME280;64313;51.018;13.742;2024-02-15T01:15:37;99969.59;;;8.15;81.41
75699;BME280;64313;51.018;13.742;2024-02-15T01:18:04;99966.94;;;8.15;81.95
75699;BME280;64313;51.018;13.742;2024-02-15T01:20:29;99979.38;;;8.15;81.67
75699;BME280;64313;51.018;13.742;2024-02-15T01:22:55;99984.91;;;8.13;81.71
75699;BME280;64313;51.018;13.742;2024-02-15T01:25:21;99966.50;;;8.12;81.61
75699;BME280;64313;51.018;13.742;2024-02-15T01:27:46;99963.84;;;8.12;82.21
75699;BME280;64313;51.018;13.742;2024-02-15T01:30:13;99966.50;;;8.12;82.28
75699;BME280;64313;51.018;13.742;2024-02-15T01:32:38;99960.34;;;8.11;82.24
75699;BME280;64313;51.018;13.742;2024-02-15T01:35:07;99959.50;;;8.11;82.17
75699;BME280;64313;51.018;13.742;2024-02-15T01:37:33;99952.38;;;8.11;82.20
75699;BME280;64313;51.018;13.742;2024-02-15T01:39:58;99956.84;;;8.11;81.92
75699;BME280;64313;51.018;13.742;2024-02-15T01:42:23;99951.53;;;8.11;81.89
75699;BME280;64313;51.018;13.742;2024-02-15T01:44:49;99953.22;;;8.12;82.05
75699;BME280;64313;51.018;13.742;2024-02-15T01:47:17;99952.38;;;8.11;82.27
75699;BME280;64313;51.018;13.742;2024-02-15T01:49:44;99950.72;;;8.10;82.30
75699;BME280;64313;51.018;13.742;2024-02-15T01:52:10;99948.88;;;8.11;82.23
75699;BME280;64313;51.018;13.742;2024-02-15T01:54:35;99951.72;;;8.09;82.40
75699;BME280;64313;51.018;13.742;2024-02-15T01:57:04;99937.44;;;8.10;82.92
75699;BME280;64313;51.018;13.742;2024-02-15T01:59:30;99941.09;;;8.09;82.47
75699;BME280;64313;51.018;13.742;2024-02-15T02:01:56;99945.59;;;8.09;82.85
75699;BME280;64313;51.018;13.742;2024-02-15T02:04:21;99939.28;;;8.10;82.72
75699;BME280;64313;51.018;13.742;2024-02-15T02:06:46;99942.13;;;8.08;82.94
75699;BME280;64313;51.018;13.742;2024-02-15T02:09:12;99940.47;;;8.07;83.19
75699;BME280;64313;51.018;13.742;2024-02-15T02:11:39;99943.13;;;8.07;83.01
75699;BME280;64313;51.018;13.742;2024-02-15T02:14:04;99937.81;;;8.07;83.38
75699;BME280;64313;51.018;13.742;2024-02-15T02:16:31;99940.47;;;8.07;84.00
75699;BME280;64313;51.018;13.742;2024-02-15T02:19:01;99950.47;;;8.05;83.83
75699;BME280;64313;51.018;13.742;2024-02-15T02:21:27;99941.66;;;8.05;84.04
75699;BME280;64313;51.018;13.742;2024-02-15T02:23:56;99945.97;;;8.06;84.22
75699;BME280;64313;51.018;13.742;2024-02-15T02:26:22;99943.13;;;8.07;84.17
75699;BME280;64313;51.018;13.742;2024-02-15T02:28:48;99948.25;;;8.09;84.27
75699;BME280;64313;51.018;13.742;2024-02-15T02:31:14;99941.78;;;8.11;83.84
75699;BME280;64313;51.018;13.742;2024-02-15T02:33:47;99947.72;;;8.13;83.66
75699;BME280;64313;51.018;13.742;2024-02-15T02:36:13;99948.34;;;8.15;83.97
75699;BME280;64313;51.018;13.742;2024-02-15T02:38:38;99948.13;;;8.17;83.80
75699;BME280;64313;51.018;13.742;2024-02-15T02:41:05;99950.63;;;8.19;84.19
75699;BME280;64313;51.018;13.742;2024-02-15T02:43:30;99939.00;;;8.20;83.77
75699;BME280;64313;51.018;13.742;2024-02-15T02:45:55;99937.78;;;8.22;83.98
75699;BME280;64313;51.018;13.742;2024-02-15T02:48:21;99933.09;;;8.24;84.07
75699;BME280;64313;51.018;13.742;2024-02-15T02:50:47;99938.41;;;8.24;83.86
75699;BME280;64313;51.018;13.742;2024-02-15T02:53:13;99932.94;;;8.26;83.75
75699;BME280;64313;51.018;13.742;2024-02-15T02:55:40;99946.22;;;8.26;84.28
75699;BME280;64313;51.018;13.742;2024-02-15T02:58:05;99932.13;;;8.25;84.03
75699;BME280;64313;51.018;13.742;2024-02-15T03:00:33;99930.28;;;8.26;84.25
75699;BME280;64313;51.018;13.742;2024-02-15T03:02:58;99931.09;;;8.26;83.93
75699;BME280;64313;51.018;13.742;2024-02-15T03:05:25;99930.28;;;8.26;84.25
75699;BME280;64313;51.018;13.742;2024-02-15T03:07:50;99934.78;;;8.25;83.69
75699;BME280;64313;51.018;13.742;2024-02-15T03:10:17;99939.06;;;8.26;83.83
75699;BME280;64313;51.018;13.742;2024-02-15T03:12:44;99937.44;;;8.25;84.30
75699;BME280;64313;51.018;13.742;2024-02-15T03:15:12;99935.59;;;8.26;83.81
75699;BME280;64313;51.018;13.742;2024-02-15T03:17:38;99935.59;;;8.26;84.09
75699;BME280;64313;51.018;13.742;2024-02-15T03:20:08;99933.75;;;8.26;84.24
75699;BME280;64313;51.018;13.742;2024-02-15T03:22:37;99928.25;;;8.28;84.19
75699;BME280;64313;51.018;13.742;2024-02-15T03:25:06;99929.06;;;8.28;84.48
75699;BME280;64313;51.018;13.742;2024-02-15T03:27:33;99921.28;;;8.27;83.80
75699;BME280;64313;51.018;13.742;2024-02-15T03:30:00;99922.94;;;8.28;83.82
75699;BME280;64313;51.018;13.742;2024-02-15T03:32:26;99927.44;;;8.27;84.11
75699;BME280;64313;51.018;13.742;2024-02-15T03:34:51;99928.25;;;8.28;84.29
75699;BME280;64313;51.018;13.742;2024-02-15T03:37:16;99929.06;;;8.28;83.66
75699;BME280;64313;51.018;13.742;2024-02-15T03:39:43;99916.81;;;8.27;83.96
75699;BME280;64313;51.018;13.742;2024-02-15T03:42:08;99922.94;;;8.28;84.00
75699;BME280;64313;51.018;13.742;2024-02-15T03:44:33;99925.59;;;8.28;83.72
75699;BME280;64313;51.018;13.742;2024-02-15T03:46:59;99923.94;;;8.27;83.95
75699;BME280;64313;51.018;13.742;2024-02-15T03:49:24;99932.75;;;8.27;84.02
75699;BME280;64313;51.018;13.742;2024-02-15T03:51:50;99919.47;;;8.27;84.29
75699;BME280;64313;51.018;13.742;2024-02-15T03:54:15;99930.91;;;8.28;83.82
75699;BME280;64313;51.018;13.742;2024-02-15T03:56:48;99933.56;;;8.28;83.88
75699;BME280;64313;51.018;13.742;2024-02-15T03:59:16;99923.75;;;8.28;84.20
75699;BME280;64313;51.018;13.742;2024-02-15T04:01:42;99933.56;;;8.28;84.20
75699;BME280;64313;51.018;13.742;2024-02-15T04:04:07;99934.38;;;8.28;84.32
75699;BME280;64313;51.018;13.742;2024-02-15T04:06:32;99927.22;;;8.29;84.44
75699;BME280;64313;51.018;13.742;2024-02-15T04:08:59;99931.72;;;8.28;84.33
75699;BME280;64313;51.018;13.742;2024-02-15T04:11:25;99938.69;;;8.29;84.27
75699;BME280;64313;51.018;13.742;2024-02-15T04:13:50;99940.53;;;8.29;84.39
75699;BME280;64313;51.018;13.742;2024-02-15T04:16:15;99936.22;;;8.28;84.06
75699;BME280;64313;51.018;13.742;2024-02-15T04:18:41;99936.41;;;8.26;84.43
75699;BME280;64313;51.018;13.742;2024-02-15T04:21:07;99939.88;;;8.27;83.78
75699;BME280;64313;51.018;13.742;2024-02-15T04:23:33;99939.25;;;8.25;84.20
75699;BME280;64313;51.018;13.742;2024-02-15T04:25:59;99935.75;;;8.24;84.27
75699;BME280;64313;51.018;13.742;2024-02-15T04:28:24;99942.09;;;8.23;84.01
75699;BME280;64313;51.018;13.742;2024-02-15T04:30:50;99937.59;;;8.24;84.03
75699;BME280;64313;51.018;13.742;2024-02-15T04:33:15;99942.91;;;8.24;84.59
75699;BME280;64313;51.018;13.742;2024-02-15T04:35:41;99940.25;;;8.24;84.31
75699;BME280;64313;51.018;13.742;2024-02-15T04:38:07;99939.25;;;8.25;84.45
75699;BME280;64313;51.018;13.742;2024-02-15T04:40:33;99939.25;;;8.25;85.10
75699;BME280;64313;51.018;13.742;2024-02-15T04:42:59;99951.69;;;8.24;84.60
75699;BME280;64313;51.018;13.742;2024-02-15T04:45:24;99940.91;;;8.26;84.55
75699;BME280;64313;51.018;13.742;2024-02-15T04:47:51;99940.09;;;8.25;85.04
75699;BME280;64313;51.018;13.742;2024-02-15T04:50:17;99944.19;;;8.28;84.79
75699;BME280;64313;51.018;13.742;2024-02-15T04:52:43;99954.63;;;8.29;84.89
75699;BME280;64313;51.018;13.742;2024-02-15T04:55:11;99946.66;;;8.29;84.62
75699;BME280;64313;51.018;13.742;2024-02-15T04:57:36;99954.63;;;8.29;84.28
75699;BME280;64313;51.018;13.742;2024-02-15T05:00:02;99958.28;;;8.28;84.52
75699;BME280;64313;51.018;13.742;2024-02-15T05:02:34;99964.22;;;8.30;84.92
75699;BME280;64313;51.018;13.742;2024-02-15T05:05:08;99948.28;;;8.30;84.72
75699;BME280;64313;51.018;13.742;2024-02-15T05:07:34;99956.25;;;8.30;84.34
75699;BME280;64313;51.018;13.742;2024-02-15T05:10:05;99956.25;;;8.30;85.33
75699;BME280;64313;51.018;13.742;2024-02-15T05:12:31;99959.78;;;8.31;85.03
75699;BME280;64313;51.018;13.742;2024-02-15T05:14:57;99960.59;;;8.31;84.74
75699;BME280;64313;51.018;13.742;2024-02-15T05:17:22;99958.91;;;8.30;85.00
75699;BME280;64313;51.018;13.742;2024-02-15T05:19:48;99959.56;;;8.32;84.98
75699;BME280;64313;51.018;13.742;2024-02-15T05:22:14;99951.59;;;8.32;84.83
75699;BME280;64313;51.018;13.742;2024-02-15T05:24:40;99957.75;;;8.33;85.02
75699;BME280;64313;51.018;13.742;2024-02-15T05:27:05;99963.06;;;8.33;84.60
75699;BME280;64313;51.018;13.742;2024-02-15T05:29:31;99964.69;;;8.34;84.55
75699;BME280;64313;51.018;13.742;2024-02-15T05:32:00;99957.53;;;8.34;84.28
75699;BME280;64313;51.018;13.742;2024-02-15T05:34:26;99958.38;;;8.35;84.69
75699;BME280;64313;51.018;13.742;2024-02-15T05:36:51;99956.56;;;8.35;84.84
75699;BME280;64313;51.018;13.742;2024-02-15T05:39:17;99960.03;;;8.36;84.56
75699;BME280;64313;51.018;13.742;2024-02-15T05:41:45;99956.38;;;8.37;85.00
75699;BME280;64313;51.018;13.742;2024-02-15T05:44:11;99960.88;;;8.36;84.70
75699;BME280;64313;51.018;13.742;2024-02-15T05:46:36;99954.72;;;8.36;84.49
75699;BME280;64313;51.018;13.742;2024-02-15T05:49:05;99966.19;;;8.36;84.79
75699;BME280;64313;51.018;13.742;2024-02-15T05:51:30;99965.19;;;8.37;84.50
75699;BME280;64313;51.018;13.742;2024-02-15T05:53:59;99968.84;;;8.36;84.48
75699;BME280;64313;51.018;13.742;2024-02-15T05:56:24;99973.34;;;8.36;84.54
75699;BME280;64313;51.018;13.742;2024-02-15T05:58:51;99971.50;;;8.36;84.48
75699;BME280;64313;51.018;13.742;2024-02-15T06:01:16;99971.66;;;8.35;84.70
75699;BME280;64313;51.018;13.742;2024-02-15T06:03:42;99979.81;;;8.33;84.06
75699;BME280;64313;51.018;13.742;2024-02-15T06:06:09;99979.00;;;8.33;84.30
75699;BME280;64313;51.018;13.742;2024-02-15T06:08:36;99983.50;;;8.32;84.42
75699;BME280;64313;51.018;13.742;2024-02-15T06:11:04;99982.47;;;8.33;84.25
75699;BME280;64313;51.018;13.742;2024-02-15T06:13:30;99991.47;;;8.32;84.35
75699;BME280;64313;51.018;13.742;2024-02-15T06:15:56;99994.13;;;8.32;84.67
75699;BME280;64313;51.018;13.742;2024-02-15T06:18:23;99996.78;;;8.32;84.70
75699;BME280;64313;51.018;13.742;2024-02-15T06:20:56;99995.75;;;8.33;84.54
75699;BME280;64313;51.018;13.742;2024-02-15T06:23:26;99990.44;;;8.33;84.64
75699;BME280;64313;51.018;13.742;2024-02-15T06:25:53;100001.91;;;8.34;85.35
75699;BME280;64313;51.018;13.742;2024-02-15T06:28:22;100002.72;;;8.34;85.09
75699;BME280;64313;51.018;13.742;2024-02-15T06:31:10;100002.72;;;8.34;85.14
75699;BME280;64313;51.018;13.742;2024-02-15T06:33:54;100007.88;;;8.36;85.33
75699;BME280;64313;51.018;13.742;2024-02-15T06:36:57;100005.22;;;8.36;84.56
75699;BME280;64313;51.018;13.742;2024-02-15T06:39:41;100010.38;;;8.37;84.66
75699;BME280;64313;51.018;13.742;2024-02-15T06:42:10;100010.38;;;8.37;84.54
75699;BME280;64313;51.018;13.742;2024-02-15T06:44:47;100009.34;;;8.38;85.01
75699;BME280;64313;51.018;13.742;2024-02-15T06:47:13;100019.16;;;8.38;85.03
75699;BME280;64313;51.018;13.742;2024-02-15T06:49:40;100012.84;;;8.39;84.75
75699;BME280;64313;51.018;13.742;2024-02-15T06:52:10;100012.84;;;8.39;85.00
75699;BME280;64313;51.018;13.742;2024-02-15T06:54:39;100013.66;;;8.39;84.77
75699;BME280;64313;51.018;13.742;2024-02-15T06:57:05;100016.31;;;8.39;85.13
75699;BME280;64313;51.018;13.742;2024-02-15T06:59:31;100013.66;;;8.39;84.59
75699;BME280;64313;51.018;13.742;2024-02-15T07:02:03;100012.63;;;8.40;84.74
75699;BME280;64313;51.018;13.742;2024-02-15T07:04:32;100010.81;;;8.41;84.54
75699;BME280;64313;51.018;13.742;2024-02-15T07:06:58;100023.28;;;8.40;84.77
75699;BME280;64313;51.018;13.742;2024-02-15T07:09:24;100019.78;;;8.40;84.64
75699;BME280;64313;51.018;13.742;2024-02-15T07:11:50;100013.66;;;8.39;84.27
75699;BME280;64313;51.018;13.742;2024-02-15T07:14:16;100010.19;;;8.39;84.79
75699;BME280;64313;51.018;13.742;2024-02-15T07:16:48;100018.97;;;8.39;85.01
75699;BME280;64313;51.018;13.742;2024-02-15T07:19:15;100009.97;;;8.40;84.40
75699;BME280;64313;51.018;13.742;2024-02-15T07:21:41;100012.63;;;8.40;84.65
75699;BME280;64313;51.018;13.742;2024-02-15T07:24:06;100004.66;;;8.40;84.66
75699;BME280;64313;51.018;13.742;2024-02-15T07:26:32;100001.00;;;8.41;84.82
75699;BME280;64313;51.018;13.742;2024-02-15T07:28:59;100006.94;;;8.44;84.96
75699;BME280;64313;51.018;13.742;2024-02-15T07:31:28;100009.59;;;8.44;84.92
75699;BME280;64313;51.018;13.742;2024-02-15T07:33:57;100003.28;;;8.45;84.61
75699;BME280;64313;51.018;13.742;2024-02-15T07:36:23;100013.72;;;8.46;85.19
75699;BME280;64313;51.018;13.742;2024-02-15T07:38:49;100012.91;;;8.46;85.08
75699;BME280;64313;51.018;13.742;2024-02-15T07:41:17;100010.88;;;8.48;84.87
75699;BME280;64313;51.018;13.742;2024-02-15T07:43:43;100013.19;;;8.51;85.36
75699;BME280;64313;51.018;13.742;2024-02-15T07:46:13;100014.00;;;8.51;85.58
75699;BME280;64313;51.018;13.742;2024-02-15T07:48:44;100011.16;;;8.53;84.88
75699;BME280;64313;51.018;13.742;2024-02-15T07:51:14;100007.47;;;8.54;85.64
75699;BME280;64313;51.018;13.742;2024-02-15T07:53:40;100011.78;;;8.55;85.29
75699;BME280;64313;51.018;13.742;2024-02-15T07:56:06;100010.75;;;8.56;85.66
75699;BME280;64313;51.018;13.742;2024-02-15T07:58:31;100009.78;;;8.57;85.74
75699;BME280;64313;51.018;13.742;2024-02-15T08:00:57;100010.41;;;8.59;85.48
75699;BME280;64313;51.018;13.742;2024-02-15T08:03:22;100009.59;;;8.58;85.46
75699;BME280;64313;51.018;13.742;2024-02-15T08:05:48;100003.88;;;8.61;85.21
75699;BME280;64313;51.018;13.742;2024-02-15T08:08:13;100009.84;;;8.63;85.75
75699;BME280;64313;51.018;13.742;2024-02-15T08:10:38;100005.34;;;8.64;85.96
75699;BME280;64313;51.018;13.742;2024-02-15T08:13:04;100000.66;;;8.66;85.68
75699;BME280;64313;51.018;13.742;2024-02-15T08:15:30;100002.94;;;8.69;86.25
75699;BME280;64313;51.018;13.742;2024-02-15T08:17:55;100000.09;;;8.71;86.68
75699;BME280;64313;51.018;13.742;2024-02-15T08:20:20;99994.41;;;8.74;86.22
75699;BME280;64313;51.018;13.742;2024-02-15T08:22:49;99991.38;;;8.77;85.98
75699;BME280;64313;51.018;13.742;2024-02-15T08:25:14;99987.50;;;8.79;86.17
75699;BME280;64313;51.018;13.742;2024-02-15T08:27:46;99982.44;;;8.84;86.69
75699;BME280;64313;51.018;13.742;2024-02-15T08:30:15;99975.72;;;8.88;86.88
75699;BME280;64313;51.018;13.742;2024-02-15T08:32:41;99974.13;;;8.94;86.30
75699;BME280;64313;51.018;13.742;2024-02-15T08:35:08;99981.34;;;9.00;86.44
75699;BME280;64313;51.018;13.742;2024-02-15T08:37:35;99977.94;;;9.06;87.26
75699;BME280;64313;51.018;13.742;2024-02-15T08:40:02;99972.66;;;9.13;87.24
75699;BME280;64313;51.018;13.742;2024-02-15T08:42:28;99973.75;;;9.18;86.69
75699;BME280;64313;51.018;13.742;2024-02-15T08:44:53;99977.28;;;9.26;86.86
75699;BME280;64313;51.018;13.742;2024-02-15T08:47:18;99986.13;;;9.33;86.65
75699;BME280;64313;51.018;13.742;2024-02-15T08:49:44;99980.84;;;9.39;86.22
75699;BME280;64313;51.018;13.742;2024-02-15T08:52:09;99984.38;;;9.46;86.37
75699;BME280;64313;51.018;13.742;2024-02-15T08:54:35;99982.41;;;9.55;86.15
75699;BME280;64313;51.018;13.742;2024-02-15T08:57:04;99989.22;;;9.64;86.27
75699;BME280;64313;51.018;13.742;2024-02-15T08:59:29;99984.38;;;9.74;86.17
75699;BME280;64313;51.018;13.742;2024-02-15T09:01:55;99982.78;;;9.80;85.92
75699;BME280;64313;51.018;13.742;2024-02-15T09:04:21;99988.16;;;9.87;85.24
75699;BME280;64313;51.018;13.742;2024-02-15T09:06:48;99976.72;;;9.93;85.20
75699;BME280;64313;51.018;13.742;2024-02-15T09:09:14;99994.75;;;9.97;84.17
75699;BME280;64313;51.018;13.742;2024-02-15T09:11:39;99998.66;;;10.01;84.01
75699;BME280;64313;51.018;13.742;2024-02-15T09:14:04;99991.13;;;10.05;84.77
75699;BME280;64313;51.018;13.742;2024-02-15T09:16:29;99989.69;;;10.09;84.41
75699;BME280;64313;51.018;13.742;2024-02-15T09:18:56;99996.47;;;10.12;84.22
75699;BME280;64313;51.018;13.742;2024-02-15T09:21:26;100002.44;;;10.14;84.09
75699;BME280;64313;51.018;13.742;2024-02-15T09:23:53;99992.38;;;10.16;83.48
75699;BME280;64313;51.018;13.742;2024-02-15T09:26:19;99991.34;;;10.17;83.83
75699;BME280;64313;51.018;13.742;2024-02-15T09:28:44;99992.00;;;10.19;83.26
75699;BME280;64313;51.018;13.742;2024-02-15T09:31:12;99996.31;;;10.20;83.23
75699;BME280;64313;51.018;13.742;2024-02-15T09:33:39;99993.44;;;10.21;83.07
75699;BME280;64313;51.018;13.742;2024-02-15T09:36:04;99991.59;;;10.22;83.22
75699;BME280;64313;51.018;13.742;2024-02-15T09:38:29;99991.25;;;10.25;83.11
75699;BME280;64313;51.018;13.742;2024-02-15T09:40:55;100000.06;;;10.25;83.79
75699;BME280;64313;51.018;13.742;2024-02-15T09:43:20;99991.03;;;10.26;83.23
75699;BME280;64313;51.018;13.742;2024-02-15T09:45:47;100006.81;;;10.28;82.70
75699;BME280;64313;51.018;13.742;2024-02-15T09:48:13;100007.66;;;10.28;82.78
75699;BME280;64313;51.018;13.742;2024-02-15T09:50:44;100008.47;;;10.29;82.88
75699;BME280;64313;51.018;13.742;2024-02-15T09:53:12;100007.66;;;10.28;82.99
75699;BME280;64313;51.018;13.742;2024-02-15T09:59:03;100009.28;;;10.29;82.61
75699;BME280;64313;51.018;13.742;2024-02-15T10:01:31;100017.28;;;10.29;82.93
75699;BME280;64313;51.018;13.742;2024-02-15T10:03:58;100014.63;;;10.29;83.31
75699;BME280;64313;51.018;13.742;2024-02-15T10:06:24;100018.75;;;10.32;82.49
75699;BME280;64313;51.018;13.742;2024-02-15T10:08:52;100005.63;;;10.30;83.16
75699;BME280;64313;51.018;13.742;2024-02-15T10:11:22;100002.97;;;10.30;82.89
75699;BME280;64313;51.018;13.742;2024-02-15T10:13:49;99999.25;;;10.32;82.99
75699;BME280;64313;51.018;13.742;2024-02-15T10:18:41;99990.03;;;10.34;83.02
75699;BME280;64313;51.018;13.742;2024-02-15T10:21:07;100000.50;;;10.36;82.86
75699;BME280;64313;51.018;13.742;2024-02-15T10:23:32;99992.31;;;10.37;83.23
75699;BME280;64313;51.018;13.742;2024-02-15T10:25:57;99996.63;;;10.38;83.05
75699;BME280;64313;51.018;13.742;2024-02-15T10:28:30;99993.53;;;10.41;83.12
75699;BME280;64313;51.018;13.742;2024-02-15T10:31:07;99991.53;;;10.43;82.89
75699;BME280;64313;51.018;13.742;2024-02-15T10:33:37;99988.66;;;10.45;82.89
75699;BME280;64313;51.018;13.742;2024-02-15T10:36:06;99993.56;;;10.48;83.40
75699;BME280;64313;51.018;13.742;2024-02-15T10:38:34;99994.38;;;10.48;82.78
75699;BME280;64313;51.018;13.742;2024-02-15T10:41:05;99995.03;;;10.50;83.45
75699;BME280;64313;51.018;13.742;2024-02-15T10:43:36;99992.16;;;10.52;83.19
75699;BME280;64313;51.018;13.742;2024-02-15T10:46:03;99988.25;;;10.54;83.24
75699;BME280;64313;51.018;13.742;2024-02-15T10:48:29;99983.56;;;10.56;82.67
75699;BME280;64313;51.018;13.742;2024-02-15T10:50:56;99972.69;;;10.58;82.86
75699;BME280;64313;51.018;13.742;2024-02-15T10:53:26;99980.28;;;10.61;83.01
75699;BME280;64313;51.018;13.742;2024-02-15T10:58:58;99970.66;;;10.67;82.95
75699;BME280;64313;51.018;13.742;2024-02-15T11:01:27;99970.25;;;10.70;82.86
75699;BME280;64313;51.018;13.742;2024-02-15T11:03:59;99965.31;;;10.73;82.74
75699;BME280;64313;51.018;13.742;2024-02-15T11:06:27;99964.94;;;10.76;82.77
75699;BME280;64313;51.018;13.742;2024-02-15T11:08:52;99974.16;;;10.80;82.88
75699;BME280;64313;51.018;13.742;2024-02-15T11:11:19;99969.25;;;10.84;82.95
75699;BME280;64313;51.018;13.742;2024-02-15T11:13:46;99966.59;;;10.91;82.75
75699;BME280;64313;51.018;13.742;2024-02-15T11:16:44;99961.03;;;10.99;83.02
75699;BME280;64313;51.018;13.742;2024-02-15T11:22:09;99956.75;;;11.11;83.40
75699;BME280;64313;51.018;13.742;2024-02-15T11:24:37;99955.94;;;11.17;83.50
75699;BME280;64313;51.018;13.742;2024-02-15T11:27:06;99961.25;;;11.24;83.14
75699;BME280;64313;51.018;13.742;2024-02-15T11:29:50;99963.72;;;11.32;82.96
75699;BME280;64313;51.018;13.742;2024-02-15T11:32:44;99962.69;;;11.39;82.69
75699;BME280;64313;51.018;13.742;2024-02-15T11:35:14;99955.50;;;11.47;82.81
75699;BME280;64313;51.018;13.742;2024-02-15T11:40:26;99950.97;;;11.60;81.29
75699;BME280;64313;51.018;13.742;2024-02-15T11:42:56;99948.06;;;11.69;80.56
75699;BME280;64313;51.018;13.742;2024-02-15T11:45:28;99941.06;;;11.74;79.49
75699;BME280;64313;51.018;13.742;2024-02-15T11:48:07;99935.91;;;11.79;79.04
75699;BME280;64313;51.018;13.742;2024-02-15T11:50:36;99939.41;;;11.86;79.47
75699;BME280;64313;51.018;13.742;2024-02-15T11:53:04;99933.22;;;11.92;79.01
75699;BME280;64313;51.018;13.742;2024-02-15T11:55:31;99934.84;;;12.00;79.35
75699;BME280;64313;51.018;13.742;2024-02-15T11:58:01;99940.38;;;12.05;78.96
75699;BME280;64313;51.018;13.742;2024-02-15T12:00:43;99929.66;;;12.12;78.92
75699;BME280;64313;51.018;13.742;2024-02-15T12:03:27;99928.81;;;12.18;77.77
75699;BME280;64313;51.018;13.742;2024-02-15T12:06:11;99925.47;;;12.23;77.50
75699;BME280;64313;51.018;13.742;2024-02-15T12:08:55;99932.88;;;12.27;77.28
75699;BME280;64313;51.018;13.742;2024-02-15T12:11:40;99926.25;;;12.30;77.12
75699;BME280;64313;51.018;13.742;2024-02-15T12:14:24;99925.03;;;12.32;76.61
75699;BME280;64313;51.018;13.742;2024-02-15T12:17:11;99926.44;;;12.35;76.31
75699;BME280;64313;51.018;13.742;2024-02-15T12:19:56;99928.72;;;12.38;76.51
75699;BME280;64313;51.018;13.742;2024-02-15T12:22:33;99930.34;;;12.39;76.63
75699;BME280;64313;51.018;13.742;2024-02-15T12:25:01;99921.28;;;12.40;76.04
75699;BME280;64313;51.018;13.742;2024-02-15T12:27:37;99914.91;;;12.41;75.61
75699;BME280;64313;51.018;13.742;2024-02-15T12:30:04;99923.53;;;12.43;75.97
75699;BME280;64313;51.018;13.742;2024-02-15T12:32:32;99927.03;;;12.43;76.01
75699;BME280;64313;51.018;13.742;2024-02-15T12:35:14;99916.94;;;12.45;75.81
75699;BME280;64313;51.018;13.742;2024-02-15T12:37:48;99908.69;;;12.47;75.60
75699;BME280;64313;51.018;13.742;2024-02-15T12:40:17;99906.59;;;12.49;75.93
75699;BME280;64313;51.018;13.742;2024-02-15T12:42:46;99898.16;;;12.52;75.49
75699;BME280;64313;51.018;13.742;2024-02-15T12:45:25;99897.94;;;12.54;75.15
75699;BME280;64313;51.018;13.742;2024-02-15T12:47:53;99904.75;;;12.56;75.00
75699;BME280;64313;51.018;13.742;2024-02-15T12:50:24;99908.00;;;12.58;75.37
75699;BME280;64313;51.018;13.742;2024-02-15T12:52:53;99907.78;;;12.60;74.52
75699;BME280;64313;51.018;13.742;2024-02-15T12:55:21;99909.22;;;12.62;74.87
75699;BME280;64313;51.018;13.742;2024-02-15T12:57:51;99910.03;;;12.63;74.71
75699;BME280;64313;51.018;13.742;2024-02-15T13:00:19;99904.69;;;12.63;74.20
75699;BME280;64313;51.018;13.742;2024-02-15T13:02:49;99899.94;;;12.65;74.04
75699;BME280;64313;51.018;13.742;2024-02-15T13:05:18;99908.78;;;12.65;74.27
75699;BME280;64313;51.018;13.742;2024-02-15T13:07:47;99904.25;;;12.66;74.67
75699;BME280;64313;51.018;13.742;2024-02-15T13:10:13;99899.47;;;12.68;74.24
75699;BME280;64313;51.018;13.742;2024-02-15T13:12:40;99903.81;;;12.69;73.75